createdAt,value
2018-07-09T06:47:09.229Z,55.70
2018-07-09T06:49:37.462Z,57.30
2018-07-09T06:52:05.753Z,55.00
2018-07-09T06:54:34.001Z,54.20
2018-07-09T06:57:02.223Z,53.30
2018-07-09T06:59:30.478Z,54.40
2018-07-09T07:01:58.705Z,53.00
2018-07-09T07:04:26.949Z,52.40
2018-07-09T07:06:55.185Z,54.70
2018-07-09T07:09:23.460Z,54.20
2018-07-09T07:11:51.697Z,51.40
2018-07-09T07:14:20.014Z,53.20
2018-07-09T07:16:48.213Z,50.30
2018-07-09T07:19:16.468Z,50.50
2018-07-09T07:21:44.699Z,50.50
2018-07-09T07:24:19.414Z,49.50
2018-07-09T07:26:47.650Z,50.30
2018-07-09T07:29:15.906Z,49.90
2018-07-09T07:31:44.159Z,51.10
2018-07-09T07:34:12.405Z,52.20
2018-07-09T07:36:40.653Z,50.10
2018-07-09T07:39:08.921Z,51.00
2018-07-09T07:41:37.158Z,49.70
2018-07-09T07:44:05.382Z,51.80
2018-07-09T07:46:33.638Z,51.80
2018-07-09T07:49:01.878Z,49.60
2018-07-09T07:51:30.124Z,51.00
2018-07-09T07:53:58.378Z,51.10
2018-07-09T07:56:26.628Z,50.70
2018-07-09T07:58:54.860Z,52.20
2018-07-09T08:01:23.126Z,52.90
2018-07-09T08:03:51.365Z,53.00
2018-07-09T08:06:19.609Z,52.40
2018-07-09T08:08:47.856Z,53.30
2018-07-09T08:11:16.115Z,51.90
2018-07-09T08:13:44.377Z,49.70
2018-07-09T08:16:12.611Z,50.30
2018-07-09T08:18:40.841Z,51.90
2018-07-09T08:21:09.094Z,52.00
2018-07-09T08:23:37.322Z,52.50
2018-07-09T08:26:05.585Z,52.90
2018-07-09T08:28:33.842Z,53.90
2018-07-09T08:31:02.235Z,54.40
2018-07-09T08:33:30.373Z,52.70
2018-07-09T08:35:58.614Z,54.10
2018-07-09T08:38:26.860Z,52.70
2018-07-09T08:40:55.102Z,52.90
2018-07-09T08:43:23.349Z,52.50
2018-07-09T08:45:51.589Z,54.00
2018-07-09T08:48:19.839Z,55.20
2018-07-09T08:50:48.064Z,52.70
2018-07-09T08:55:44.320Z,56.30
2018-07-09T08:58:12.574Z,54.40
2018-07-09T09:00:40.805Z,55.20
2018-07-09T09:03:09.086Z,54.60
2018-07-09T09:05:37.331Z,54.00
2018-07-09T09:08:05.641Z,54.50
2018-07-09T09:10:33.902Z,54.70
2018-07-09T09:13:02.165Z,53.90
2018-07-09T09:15:30.406Z,55.20
2018-07-09T09:17:58.689Z,54.20
2018-07-09T09:20:26.922Z,51.90
2018-07-09T09:22:55.205Z,52.70
2018-07-09T09:25:23.445Z,53.90
2018-07-09T09:27:51.697Z,54.20
2018-07-09T09:30:19.941Z,50.50
2018-07-09T09:32:48.212Z,50.40
2018-07-09T09:35:16.486Z,49.50
2018-07-09T09:37:44.741Z,50.40
2018-07-09T09:40:12.952Z,50.40
2018-07-09T09:42:41.194Z,52.20
2018-07-09T09:45:09.420Z,51.10
2018-07-09T09:47:37.664Z,51.70
2018-07-09T09:50:05.906Z,52.40
2018-07-09T09:52:34.169Z,50.90
2018-07-09T09:55:02.453Z,50.80
2018-07-09T09:57:30.689Z,49.60
2018-07-09T09:59:58.923Z,49.70
2018-07-09T10:02:27.177Z,50.60
2018-07-09T10:04:55.418Z,50.70
2018-07-09T10:07:23.677Z,51.00
2018-07-09T10:09:51.942Z,49.30
2018-07-09T10:12:20.179Z,48.10
2018-07-09T10:14:48.404Z,50.90
2018-07-09T10:17:16.652Z,51.00
2018-07-09T10:19:44.885Z,48.70
2018-07-09T10:22:13.126Z,51.00
2018-07-09T10:24:41.374Z,47.80
2018-07-09T10:27:09.622Z,50.10
2018-07-09T10:29:37.978Z,48.70
2018-07-09T10:32:06.309Z,49.10
2018-07-09T10:34:34.560Z,49.40
2018-07-09T10:37:02.780Z,48.90
2018-07-09T10:39:31.033Z,47.30
2018-07-09T10:41:59.277Z,47.10
2018-07-09T10:44:27.527Z,47.50
2018-07-09T10:46:55.768Z,46.40
2018-07-09T10:49:24.027Z,46.20
2018-07-09T10:51:52.244Z,45.00
2018-07-09T10:54:20.530Z,46.80
2018-07-09T10:56:48.760Z,47.20
2018-07-09T10:59:17.002Z,46.40
2018-07-09T11:01:45.292Z,48.40
2018-07-09T11:04:13.525Z,47.80
2018-07-09T11:06:41.746Z,48.60
2018-07-09T11:09:10.013Z,47.60
2018-07-09T11:11:38.233Z,47.10
2018-07-09T11:14:06.483Z,48.70
2018-07-09T11:16:34.696Z,46.70
2018-07-09T11:19:02.950Z,46.30
2018-07-09T11:21:31.195Z,45.50
2018-07-09T11:23:59.442Z,48.10
2018-07-09T11:26:27.703Z,50.40
2018-07-09T11:28:55.946Z,48.50
2018-07-09T11:31:24.190Z,47.10
2018-07-09T11:33:52.441Z,46.70
2018-07-09T11:36:20.681Z,47.00
2018-07-09T11:38:48.952Z,45.50
2018-07-09T11:41:17.200Z,47.00
2018-07-09T11:43:45.461Z,46.20
2018-07-09T11:46:13.690Z,45.60
2018-07-09T11:48:41.965Z,47.60
2018-07-09T11:51:10.197Z,48.00
2018-07-09T11:53:38.454Z,48.10
2018-07-09T11:56:06.689Z,47.90
2018-07-09T11:58:34.966Z,48.20
2018-07-09T12:01:03.201Z,48.50
2018-07-09T12:03:31.450Z,46.70
2018-07-09T12:05:59.676Z,45.80
2018-07-09T12:08:27.946Z,45.10
2018-07-09T12:10:56.183Z,45.90
2018-07-09T12:13:24.430Z,43.80
2018-07-09T12:15:52.686Z,44.60
2018-07-09T12:18:20.927Z,43.40
2018-07-09T12:20:49.174Z,41.10
2018-07-09T12:23:17.404Z,41.50
2018-07-09T12:25:45.670Z,39.90
2018-07-09T12:28:13.928Z,40.10
2018-07-09T12:30:42.180Z,42.10
2018-07-09T12:33:10.444Z,41.60
2018-07-09T12:35:38.689Z,41.40
2018-07-09T12:38:06.927Z,40.10
2018-07-09T12:40:35.173Z,42.00
2018-07-09T12:43:03.413Z,41.90
2018-07-09T12:48:06.357Z,41.00
2018-07-09T12:50:34.622Z,40.00
2018-07-09T12:53:02.866Z,43.00
2018-07-09T12:55:31.118Z,39.40
2018-07-09T12:57:59.353Z,39.80
2018-07-09T13:00:27.601Z,37.10
2018-07-09T13:02:55.837Z,36.50
2018-07-09T13:05:24.086Z,35.20
2018-07-09T13:07:52.315Z,35.00
2018-07-09T13:10:20.575Z,32.90
2018-07-09T13:12:48.818Z,35.20
2018-07-09T13:15:17.060Z,31.00
2018-07-09T13:17:45.292Z,32.90
2018-07-09T13:20:13.542Z,30.00
2018-07-09T13:22:41.783Z,29.20
2018-07-09T13:25:10.037Z,29.50
2018-07-09T13:27:38.263Z,29.60
2018-07-09T13:30:06.554Z,30.00
2018-07-09T13:35:02.797Z,27.80
2018-07-09T13:37:31.037Z,29.20
2018-07-09T13:39:59.297Z,27.80
2018-07-09T13:42:27.541Z,26.70
2018-07-09T13:44:55.798Z,27.20
2018-07-09T13:47:24.038Z,28.80
2018-07-09T13:49:52.293Z,25.70
2018-07-09T13:52:20.561Z,23.30
2018-07-09T13:54:48.802Z,29.80
2018-07-09T13:57:17.033Z,28.10
2018-07-09T13:59:45.285Z,29.70
2018-07-09T14:02:13.621Z,30.00
2018-07-09T14:04:41.883Z,32.80
2018-07-09T14:07:10.110Z,35.50
2018-07-09T14:09:38.406Z,35.30
2018-07-09T14:12:06.874Z,36.40
2018-07-09T14:14:35.105Z,37.00
2018-07-09T14:17:03.351Z,38.10
2018-07-09T14:20:44.832Z,36.30
2018-07-09T14:23:16.305Z,37.30
2018-07-09T14:25:44.556Z,37.50
2018-07-09T14:28:12.861Z,38.30
2018-07-09T14:30:41.200Z,40.00
2018-07-09T14:33:09.708Z,40.40
2018-07-09T14:35:37.952Z,38.80
2018-07-09T14:38:06.212Z,38.70
2018-07-09T14:40:34.495Z,39.70
2018-07-09T14:43:02.716Z,40.60
2018-07-09T14:45:30.941Z,40.70
2018-07-09T14:47:59.202Z,41.50
2018-07-09T14:50:28.227Z,42.60
2018-07-09T14:52:56.469Z,41.90
2018-07-09T14:55:24.709Z,42.10
2018-07-09T14:57:52.949Z,41.80
2018-07-09T15:00:21.173Z,41.50
2018-07-09T15:02:49.421Z,43.90
2018-07-09T15:05:17.649Z,42.00
2018-07-09T15:07:45.909Z,42.10
2018-07-09T15:10:14.174Z,42.90
2018-07-09T15:12:42.429Z,43.60
